Terminal Aerodrome Forecast
Issued by NWS Wakefield, VA

Home | Current Version | Previous Version | Text Only | Print | Product List | Glossary On
Versions: 1 2 3 4 5 6 7 8 9 10 11 12 13 14
106
FTUS41 KAKQ 290536
TAFSBY
TAF
KSBY 290536Z 2906/3006 VRB03KT P6SM BKN250
     FM290800 00000KT 5SM BR SCT015
     FM291000 00000KT 2SM BR BKN008
     FM291300 04005KT P6SM SCT250
     FM291800 09007KT P6SM SCT250=

USA.gov is the U.S. government's official web portal to all federal, state and local government web resources and services.